Sevilla La Nueva, Spain
Current Conditions -  °F | °C
As of 9:00 PM on Thursday 23 Oct 2014 (Local Time) from LEVS Reporting Station
Clear Clear  
Wind Chill: 68°   Ceiling: Unl
Heat Index: 68°   Visibility: 6mi
Dew Point: 43°   Wind: 0mph
Humidity: 40%   Direction: NA
Pressure: 30.21"   Gusts: NA
Location:  40.35°N, 4.03°W
Report Text: LEVS 231900Z 00000KT CAVOK 20/06 Q1023
Loading
Personal Weather Stations






























Interactive Weather Map New forecast layout! Learn more

10-Day Weather Forecast

Advertisements
Track Severe Weather on mobile